General Francisco Javier Mina International Airport
MMTM : now visible

Airfield :











YOU CAN JOIN US ON...

 
LOGIN :

Register | Disclaimer

   EN    FR    IT 

 









Legend :    VFR   Marginal VFR   IFR   Intensive IFR   Very Intensive IFR
Visi :
Ceiling :
>= 8 km
>= 3000ft
5 to 8 km
1000 to 3000 ft
1500m to 5 km
500 to 1000 ft
800 to 1500m
200 to 500 ft
< 800m
< 200 ft
Symbols :   Thunderstorms  Fog  Heavy snow  Heavy precipitations  Wind > 20 kt






- Airport Elevation : 80 ft
- IATA code : TAM


MMTM - General Francisco Javier Mina International

METAR N/A
TAF TAF MMTM
Valid from the 11 at 06:00 until the 12 at 06:00 UTC


110533Z 1106/1206 36030G40KT 6SM HZ OVC025
FM110900 36015G25KT 6SM HZ OVC020
FM111700 36018KT P6SM OVC020
FM112200 36015KT P6SM BKN020
FM120300 03010KT 5SM HZ BKN020



MET'MAP, your aeronautical weather chart ! - Copyright ORBIFLY December 2007 - Disclaimer

ORBIFLY MET'MAP TEAM :

Programming & Development : Alexandra Zaïnal
Concept & original design : Baudouin d'Aumeries
Assistance for programming : Marc-Olivier Méhu
Technical & hardware support : Manuel Goepfert

Contact : metmap@orbifly.com




SOURCES & CREDITS :

   NOAA       Earth
Advisory